createdAt,value
2022-11-16T00:02:18.734Z,14.07
2022-11-16T00:04:47.320Z,16.80
2022-11-16T00:07:16.283Z,17.50
2022-11-16T00:09:44.766Z,11.68
2022-11-16T00:12:14.608Z,14.30
2022-11-16T00:14:45.415Z,16.10
2022-11-16T00:17:14.441Z,12.30
2022-11-16T00:19:43.243Z,13.63
2022-11-16T00:22:11.639Z,11.57
2022-11-16T00:24:40.121Z,16.05
2022-11-16T00:27:08.878Z,14.50
2022-11-16T00:29:39.071Z,14.95
2022-11-16T00:32:07.674Z,11.75
2022-11-16T00:34:36.037Z,12.05
2022-11-16T00:37:05.869Z,10.93
2022-11-16T00:39:34.546Z,14.35
2022-11-16T00:42:03.239Z,15.57
2022-11-16T00:44:31.620Z,13.65
2022-11-16T00:47:01.582Z,13.52
2022-11-16T00:49:30.170Z,11.52
2022-11-16T00:51:58.886Z,15.73
2022-11-16T00:54:31.773Z,15.40
2022-11-16T00:57:03.314Z,19.30
2022-11-16T00:59:31.809Z,13.05
2022-11-16T01:02:03.845Z,15.57
2022-11-16T01:04:32.365Z,13.60
2022-11-16T01:07:01.188Z,15.63
2022-11-16T01:09:29.733Z,14.25
2022-11-16T01:12:09.570Z,16.45
2022-11-16T01:14:41.104Z,12.98
2022-11-16T01:17:11.212Z,14.68
2022-11-16T01:19:39.635Z,13.48
2022-11-16T01:22:08.817Z,13.38
2022-11-16T01:24:37.390Z,11.82
2022-11-16T01:27:05.896Z,13.60
2022-11-16T01:29:37.247Z,12.10
2022-11-16T01:32:06.151Z,17.98
2022-11-16T01:34:36.985Z,13.25
2022-11-16T01:37:21.853Z,13.30
2022-11-16T01:39:56.418Z,12.55
2022-11-16T01:45:05.355Z,13.82
2022-11-16T01:47:35.720Z,12.30
2022-11-16T01:50:11.401Z,14.73
2022-11-16T01:52:47.584Z,15.82
2022-11-16T01:55:16.855Z,16.95
2022-11-16T01:58:09.708Z,11.65
2022-11-16T02:00:41.770Z,14.43
2022-11-16T02:03:33.545Z,12.95
2022-11-16T02:06:16.956Z,12.82
2022-11-16T02:09:20.191Z,11.20
2022-11-16T02:12:13.360Z,10.52
2022-11-16T02:15:04.927Z,12.77
2022-11-16T02:17:44.883Z,12.15
2022-11-16T02:20:45.826Z,10.18
2022-11-16T02:23:56.496Z,11.90
2022-11-16T02:26:45.736Z,11.32
2022-11-16T02:29:22.885Z,11.73
2022-11-16T02:32:00.340Z,16.60
2022-11-16T02:34:35.185Z,11.77
2022-11-16T02:37:07.341Z,13.05
2022-11-16T02:39:38.418Z,11.65
2022-11-16T02:42:11.870Z,15.80
2022-11-16T02:44:47.669Z,9.43
2022-11-16T02:47:21.423Z,8.63
2022-11-16T02:49:56.596Z,15.15
2022-11-16T02:52:27.025Z,10.25
2022-11-16T02:54:55.656Z,9.27
2022-11-16T02:57:36.685Z,16.90
2022-11-16T03:00:09.029Z,14.13
2022-11-16T03:02:51.541Z,12.90
2022-11-16T03:05:32.198Z,11.10
2022-11-16T03:08:20.946Z,10.80
2022-11-16T03:11:12.178Z,9.65
2022-11-16T03:13:42.276Z,9.73
2022-11-16T03:16:18.325Z,11.15
2022-11-16T03:18:48.603Z,12.80
2022-11-16T03:21:23.256Z,10.40
2022-11-16T03:23:52.493Z,7.32
2022-11-16T03:26:25.736Z,10.27
2022-11-16T03:29:02.116Z,10.23
2022-11-16T03:31:39.943Z,9.07
2022-11-16T03:34:13.764Z,8.88
2022-11-16T03:36:46.185Z,10.50
2022-11-16T03:39:21.683Z,9.57
2022-11-16T03:41:52.001Z,9.45
2022-11-16T03:44:21.880Z,12.98
2022-11-16T03:46:51.977Z,11.60
2022-11-16T03:49:22.988Z,8.30
2022-11-16T03:51:53.610Z,9.02
2022-11-16T03:54:22.526Z,13.75
2022-11-16T03:56:50.998Z,10.07
2022-11-16T03:59:19.907Z,9.25
2022-11-16T04:01:48.468Z,10.73
2022-11-16T04:04:32.358Z,9.20
2022-11-16T04:07:18.982Z,9.85
2022-11-16T04:10:04.994Z,9.02
2022-11-16T04:12:51.796Z,8.93
2022-11-16T04:15:37.853Z,11.05
2022-11-16T04:18:24.102Z,10.07
2022-11-16T04:21:11.023Z,9.88
2022-11-16T04:23:57.294Z,10.98
2022-11-16T04:26:50.737Z,12.18
2022-11-16T04:29:19.275Z,10.02
2022-11-16T04:32:05.739Z,11.90
2022-11-16T04:34:51.980Z,12.15
2022-11-16T04:37:39.499Z,9.65
2022-11-16T04:40:09.476Z,8.95
2022-11-16T04:42:43.206Z,15.23
2022-11-16T04:45:29.102Z,9.15
2022-11-16T04:47:57.588Z,9.52
2022-11-16T04:50:31.145Z,11.18
2022-11-16T04:53:03.371Z,10.32
2022-11-16T04:55:35.245Z,11.90
2022-11-16T04:58:04.325Z,12.23
2022-11-16T05:00:33.510Z,10.50
2022-11-16T05:03:04.143Z,9.70
2022-11-16T05:05:33.166Z,9.40
2022-11-16T05:08:04.750Z,10.20
2022-11-16T05:10:34.489Z,10.70
2022-11-16T05:13:04.243Z,10.00
2022-11-16T05:15:34.597Z,14.25
2022-11-16T05:18:03.542Z,9.27
2022-11-16T05:20:49.467Z,9.70
2022-11-16T05:23:36.540Z,8.93
2022-11-16T05:26:10.874Z,9.20
2022-11-16T05:28:39.989Z,14.75
2022-11-16T05:31:10.491Z,12.20
2022-11-16T05:33:39.076Z,9.90
2022-11-16T05:36:08.600Z,9.85
2022-11-16T05:38:39.209Z,12.10
2022-11-16T05:41:07.789Z,11.68
2022-11-16T05:43:36.501Z,9.85
2022-11-16T05:46:13.209Z,14.35
2022-11-16T05:48:41.997Z,13.77
2022-11-16T05:51:10.423Z,7.90
2022-11-16T05:53:41.195Z,7.88
2022-11-16T05:56:10.006Z,12.10
2022-11-16T05:58:41.054Z,9.98
2022-11-16T06:01:09.651Z,10.90
2022-11-16T06:03:39.425Z,8.80
2022-11-16T06:06:08.319Z,12.77
2022-11-16T06:08:37.879Z,9.70
2022-11-16T06:11:12.533Z,8.52
2022-11-16T06:13:41.361Z,10.38
2022-11-16T06:16:10.032Z,9.38
2022-11-16T06:18:40.397Z,10.50
2022-11-16T06:21:10.895Z,9.52
2022-11-16T06:23:39.508Z,8.82
2022-11-16T06:26:08.821Z,8.13
2022-11-16T06:28:39.063Z,8.07
2022-11-16T06:31:07.844Z,11.20
2022-11-16T06:33:41.172Z,10.80
2022-11-16T06:36:20.884Z,10.48
2022-11-16T06:38:50.955Z,10.25
2022-11-16T06:41:21.173Z,9.32
2022-11-16T06:43:52.706Z,14.05
2022-11-16T06:46:26.075Z,9.93
2022-11-16T06:48:55.194Z,10.02
2022-11-16T06:51:23.572Z,13.70
2022-11-16T06:53:52.384Z,10.88
2022-11-16T06:56:22.385Z,11.95
2022-11-16T06:58:57.450Z,10.55
2022-11-16T07:01:28.211Z,12.02
2022-11-16T07:04:05.491Z,10.73
2022-11-16T07:06:34.673Z,8.57
2022-11-16T07:09:06.551Z,10.48
2022-11-16T07:11:35.468Z,10.60
2022-11-16T07:14:06.617Z,12.73
2022-11-16T07:16:36.776Z,13.43
2022-11-16T07:19:07.003Z,10.13
2022-11-16T07:21:38.205Z,10.63
2022-11-16T07:24:10.582Z,13.23
2022-11-16T07:26:38.953Z,9.82
2022-11-16T07:29:13.983Z,10.93
2022-11-16T07:31:47.583Z,12.65
2022-11-16T07:34:57.154Z,11.98
2022-11-16T07:37:27.555Z,13.60
2022-11-16T07:39:56.310Z,10.77
2022-11-16T07:42:26.004Z,11.60
2022-11-16T07:45:12.784Z,11.40
2022-11-16T07:47:52.507Z,9.60
2022-11-16T07:50:39.755Z,11.60
2022-11-16T07:53:08.645Z,13.57
2022-11-16T07:55:38.240Z,13.82
2022-11-16T07:58:06.826Z,13.55
2022-11-16T08:00:37.100Z,11.80
2022-11-16T08:03:14.407Z,15.15
2022-11-16T08:05:44.688Z,15.05
2022-11-16T08:08:13.800Z,13.27
2022-11-16T08:10:43.950Z,11.52
2022-11-16T08:13:13.041Z,14.00
2022-11-16T08:15:45.158Z,12.00
2022-11-16T08:18:13.816Z,9.40
2022-11-16T08:20:42.350Z,13.15
2022-11-16T08:23:11.356Z,12.73
2022-11-16T08:25:40.086Z,10.40
2022-11-16T08:28:09.405Z,15.25
2022-11-16T08:30:40.223Z,20.38
2022-11-16T08:33:11.322Z,15.50
2022-11-16T08:35:39.822Z,12.15
2022-11-16T08:38:09.108Z,11.73
2022-11-16T08:40:38.650Z,9.27
2022-11-16T08:43:07.492Z,10.95
2022-11-16T08:45:38.302Z,12.25
2022-11-16T08:48:08.493Z,13.52
2022-11-16T08:51:10.053Z,14.32
2022-11-16T08:53:28.516Z,13.00
2022-11-16T08:55:56.898Z,12.10
2022-11-16T08:58:25.268Z,14.30
2022-11-16T09:00:54.882Z,12.50
2022-11-16T09:03:23.241Z,13.38
2022-11-16T09:05:53.979Z,11.40
2022-11-16T09:08:22.370Z,13.10
2022-11-16T09:10:50.775Z,13.10
2022-11-16T09:13:19.309Z,11.88
2022-11-16T09:15:47.786Z,12.75
2022-11-16T09:18:16.373Z,10.40
2022-11-16T09:20:45.879Z,9.60
2022-11-16T09:23:17.789Z,10.77
2022-11-16T09:25:49.022Z,13.23
2022-11-16T09:28:18.023Z,10.55
2022-11-16T09:30:47.582Z,15.05
2022-11-16T09:33:16.309Z,11.68
2022-11-16T09:35:44.978Z,11.05
2022-11-16T09:38:19.097Z,12.20
2022-11-16T09:40:55.562Z,12.98
2022-11-16T09:43:39.731Z,11.10
2022-11-16T09:46:25.934Z,12.23
2022-11-16T09:48:59.447Z,8.05
2022-11-16T09:51:33.017Z,9.68
2022-11-16T09:54:06.229Z,14.40
2022-11-16T09:56:40.563Z,13.57
2022-11-16T09:59:18.240Z,10.13
2022-11-16T10:01:52.695Z,13.02
2022-11-16T10:04:27.879Z,11.52
2022-11-16T10:07:02.110Z,12.75
2022-11-16T10:09:31.905Z,14.00
2022-11-16T10:12:15.265Z,11.50
2022-11-16T10:15:13.593Z,10.43
2022-11-16T10:18:04.748Z,9.20
2022-11-16T10:20:51.337Z,9.77
2022-11-16T10:23:30.468Z,10.70
2022-11-16T10:26:10.193Z,13.73
2022-11-16T10:28:58.251Z,10.32
2022-11-16T10:31:34.114Z,12.60
2022-11-16T10:34:07.021Z,10.98
2022-11-16T10:36:38.901Z,11.20
2022-11-16T10:42:11.706Z,9.95
2022-11-16T10:44:45.882Z,9.10
2022-11-16T10:47:21.034Z,8.13
2022-11-16T10:49:57.413Z,9.40
2022-11-16T10:52:26.387Z,10.18
2022-11-16T10:54:55.133Z,7.40
2022-11-16T10:57:24.990Z,10.63
2022-11-16T10:59:58.138Z,8.88
2022-11-16T11:02:35.907Z,8.80
2022-11-16T11:05:08.070Z,8.95
2022-11-16T11:07:40.039Z,7.72
2022-11-16T11:10:31.005Z,8.98
2022-11-16T11:13:18.857Z,5.32
2022-11-16T11:15:51.334Z,6.25
2022-11-16T11:18:26.766Z,5.18
2022-11-16T11:21:10.313Z,11.07
2022-11-16T11:23:48.874Z,7.72
2022-11-16T11:26:36.502Z,6.95
2022-11-16T11:29:18.359Z,6.95
2022-11-16T11:31:54.896Z,5.93
2022-11-16T11:34:27.764Z,9.20
2022-11-16T11:37:01.601Z,9.00
2022-11-16T11:39:33.172Z,6.55
2022-11-16T11:42:08.027Z,7.88
2022-11-16T11:44:51.071Z,5.95
2022-11-16T11:50:25.095Z,10.75
2022-11-16T11:53:04.905Z,9.52
2022-11-16T11:55:33.904Z,6.35
2022-11-16T11:58:05.866Z,9.93
2022-11-16T12:00:45.290Z,7.07
2022-11-16T12:03:41.245Z,10.80
2022-11-16T12:06:18.772Z,6.88
2022-11-16T12:09:02.217Z,8.07
2022-11-16T12:11:47.416Z,7.80
2022-11-16T12:14:27.723Z,7.40
2022-11-16T12:20:03.477Z,5.55
2022-11-16T12:23:01.040Z,6.72
2022-11-16T12:25:43.841Z,7.93
2022-11-16T12:28:26.281Z,7.13
2022-11-16T12:31:06.991Z,6.78
2022-11-16T12:36:25.036Z,13.32
2022-11-16T12:39:05.934Z,10.50
2022-11-16T12:42:19.632Z,11.23
2022-11-16T12:45:16.472Z,14.50
2022-11-16T12:48:00.580Z,19.42
2022-11-16T12:50:46.948Z,10.57
2022-11-16T12:56:10.366Z,16.42
2022-11-16T12:58:56.543Z,11.63
2022-11-16T13:01:30.899Z,10.35
2022-11-16T13:04:05.187Z,18.23
2022-11-16T13:06:41.160Z,17.05
2022-11-16T13:09:14.927Z,18.83
2022-11-16T13:11:49.114Z,20.05
2022-11-16T13:14:21.406Z,17.70
2022-11-16T13:16:52.168Z,19.02
2022-11-16T13:19:22.158Z,15.40
2022-11-16T13:21:59.963Z,16.73
2022-11-16T13:24:48.677Z,23.15
2022-11-16T13:27:29.549Z,17.25
2022-11-16T13:30:02.972Z,12.23
2022-11-16T13:32:49.473Z,12.40
2022-11-16T13:35:21.077Z,13.90
2022-11-16T13:37:52.154Z,9.50
2022-11-16T13:40:47.423Z,12.65
2022-11-16T13:43:21.194Z,11.52
2022-11-16T13:45:59.824Z,11.65
2022-11-16T13:48:33.916Z,11.65
2022-11-16T13:51:05.289Z,12.07
2022-11-16T13:56:29.280Z,24.67
2022-11-16T13:59:00.151Z,28.77
2022-11-16T14:01:58.715Z,32.00
2022-11-16T14:04:58.169Z,33.42
2022-11-16T14:07:37.422Z,33.63
2022-11-16T14:10:08.163Z,40.25
2022-11-16T14:13:00.875Z,38.13
2022-11-16T14:15:34.504Z,37.20
2022-11-16T14:18:32.057Z,36.60
2022-11-16T14:21:08.421Z,39.00
2022-11-16T14:23:53.526Z,47.38
2022-11-16T14:26:29.219Z,36.17
2022-11-16T14:29:20.317Z,39.55
2022-11-16T14:31:52.754Z,34.03
2022-11-16T14:34:25.075Z,34.45
2022-11-16T14:36:57.343Z,30.95
2022-11-16T14:39:33.356Z,32.03
2022-11-16T14:42:05.322Z,34.67
2022-11-16T14:44:39.077Z,32.00
2022-11-16T14:47:23.448Z,33.80
2022-11-16T14:49:52.551Z,31.75
2022-11-16T14:52:31.159Z,67.35
2022-11-16T14:55:04.543Z,27.75
2022-11-16T14:57:32.943Z,31.05
2022-11-16T15:00:13.131Z,33.00
2022-11-16T15:05:16.928Z,16.52
2022-11-16T15:07:50.203Z,15.32
2022-11-16T15:10:21.583Z,16.45
2022-11-16T15:12:53.015Z,16.98
2022-11-16T15:15:24.704Z,15.75
2022-11-16T15:18:09.369Z,13.93
2022-11-16T15:20:48.051Z,12.60
2022-11-16T15:23:18.491Z,16.20
2022-11-16T15:25:54.232Z,13.13
2022-11-16T15:28:26.044Z,24.27
2022-11-16T15:30:56.959Z,14.23
2022-11-16T15:33:28.116Z,14.10
2022-11-16T15:35:56.638Z,23.50
2022-11-16T15:38:28.683Z,20.67
2022-11-16T15:40:59.745Z,17.38
2022-11-16T15:43:32.808Z,16.27
2022-11-16T15:46:02.572Z,19.40
2022-11-16T15:48:34.510Z,16.13
2022-11-16T15:51:09.054Z,18.70
2022-11-16T15:53:42.276Z,18.17
2022-11-16T15:56:16.546Z,13.63
2022-11-16T15:58:45.904Z,12.90
2022-11-16T16:01:15.432Z,12.95
2022-11-16T16:03:55.997Z,12.90
2022-11-16T16:06:47.500Z,13.60
2022-11-16T16:09:25.631Z,16.73
2022-11-16T16:11:56.195Z,15.20
2022-11-16T16:14:28.294Z,16.58
2022-11-16T16:16:58.917Z,12.30
2022-11-16T16:19:41.812Z,13.40
2022-11-16T16:22:15.922Z,15.35
2022-11-16T16:24:51.732Z,15.43
2022-11-16T16:27:58.994Z,13.93
2022-11-16T16:30:38.040Z,14.55
2022-11-16T16:33:07.251Z,17.17
2022-11-16T16:35:36.726Z,12.85
2022-11-16T16:38:14.671Z,14.95
2022-11-16T16:40:47.467Z,12.77
2022-11-16T16:43:19.169Z,11.35
2022-11-16T16:45:47.795Z,14.23
2022-11-16T16:48:16.397Z,12.38
2022-11-16T16:50:49.418Z,14.05
2022-11-16T16:53:33.730Z,16.25
2022-11-16T16:56:05.040Z,16.00
2022-11-16T16:58:34.040Z,17.70
2022-11-16T17:01:05.657Z,14.18
2022-11-16T17:03:34.413Z,14.35
2022-11-16T17:06:04.900Z,18.38
2022-11-16T17:08:35.109Z,16.98
2022-11-16T17:11:05.681Z,20.30
2022-11-16T17:13:34.646Z,20.00
2022-11-16T17:16:06.043Z,21.85
2022-11-16T17:18:34.462Z,20.10
2022-11-16T17:21:06.808Z,23.30
2022-11-16T17:23:36.269Z,15.70
2022-11-16T17:26:08.635Z,14.43
2022-11-16T17:28:37.470Z,12.88
2022-11-16T17:31:08.354Z,17.20
2022-11-16T17:33:38.760Z,12.30
2022-11-16T17:36:08.900Z,13.02
2022-11-16T17:38:38.669Z,11.75
2022-11-16T17:41:12.732Z,14.73
2022-11-16T17:46:12.304Z,14.75
2022-11-16T17:48:42.320Z,15.10
2022-11-16T17:51:11.020Z,13.95
2022-11-16T17:53:40.745Z,17.45
2022-11-16T17:56:12.538Z,20.88
2022-11-16T17:58:42.548Z,15.55
2022-11-16T18:01:10.953Z,16.60
2022-11-16T18:03:40.723Z,17.95
2022-11-16T18:06:13.447Z,18.10
2022-11-16T18:08:43.698Z,17.63
2022-11-16T18:11:15.190Z,17.63
2022-11-16T18:13:44.806Z,19.40
2022-11-16T18:16:14.899Z,20.02
2022-11-16T18:18:45.257Z,16.33
2022-11-16T18:21:20.373Z,17.42
2022-11-16T18:23:49.718Z,23.33
2022-11-16T18:26:22.417Z,22.05
2022-11-16T18:28:52.661Z,20.33
2022-11-16T18:31:22.881Z,15.35
2022-11-16T18:33:52.266Z,15.18
2022-11-16T18:36:24.188Z,15.25
2022-11-16T18:38:54.583Z,11.98
2022-11-16T18:41:31.805Z,19.13
2022-11-16T18:44:02.938Z,27.85
2022-11-16T18:46:33.312Z,27.00
2022-11-16T18:49:02.162Z,27.25
2022-11-16T18:51:30.830Z,45.08
2022-11-16T18:53:59.622Z,58.88
2022-11-16T18:56:29.825Z,39.50
2022-11-16T18:58:59.858Z,50.75
2022-11-16T19:01:29.987Z,52.15
2022-11-16T19:03:58.515Z,36.35
2022-11-16T19:06:26.951Z,37.50
2022-11-16T19:08:59.616Z,38.15
2022-11-16T19:11:30.054Z,36.83
2022-11-16T19:14:04.039Z,48.10
2022-11-16T19:16:32.815Z,40.03
2022-11-16T19:19:02.631Z,40.92
2022-11-16T19:21:33.412Z,58.47
2022-11-16T19:24:02.189Z,56.97
2022-11-16T19:26:32.103Z,54.60
2022-11-16T19:29:05.454Z,63.38
2022-11-16T19:31:36.936Z,74.15
2022-11-16T19:34:07.947Z,66.10
2022-11-16T19:36:37.879Z,81.93
2022-11-16T19:39:07.288Z,106.38
2022-11-16T19:41:40.859Z,79.25
2022-11-16T19:44:11.162Z,107.63
2022-11-16T19:46:39.843Z,104.70
2022-11-16T19:49:13.445Z,70.50
2022-11-16T19:51:46.377Z,63.38
2022-11-16T19:54:14.998Z,90.80
2022-11-16T19:56:49.298Z,112.15
2022-11-16T19:59:20.760Z,76.15
2022-11-16T20:01:49.734Z,64.85
2022-11-16T20:04:18.049Z,68.38
2022-11-16T20:06:46.373Z,64.40
2022-11-16T20:09:14.819Z,75.80
2022-11-16T20:11:50.747Z,75.47
2022-11-16T20:14:33.016Z,77.63
2022-11-16T20:17:02.244Z,80.53
2022-11-16T20:19:31.056Z,83.63
2022-11-16T20:22:00.021Z,70.20
2022-11-16T20:24:28.411Z,71.72
2022-11-16T20:26:58.206Z,86.45
2022-11-16T20:29:26.612Z,143.82
2022-11-16T20:31:54.980Z,117.07
2022-11-16T20:34:23.777Z,87.75
2022-11-16T20:36:53.283Z,67.28
2022-11-16T20:39:47.047Z,79.70
2022-11-16T20:42:17.187Z,92.75
2022-11-16T20:44:46.060Z,106.43
2022-11-16T20:47:15.759Z,104.00
2022-11-16T20:49:44.686Z,105.25
2022-11-16T20:52:13.238Z,95.90
2022-11-16T20:54:43.593Z,95.00
2022-11-16T20:57:12.699Z,58.42
2022-11-16T20:59:42.478Z,52.72
2022-11-16T21:02:13.875Z,65.88
2022-11-16T21:04:42.331Z,49.78
2022-11-16T21:07:12.392Z,43.45
2022-11-16T21:09:56.090Z,53.88
2022-11-16T21:12:43.088Z,71.72
2022-11-16T21:17:41.619Z,58.97
2022-11-16T21:20:28.073Z,57.92
2022-11-16T21:22:57.158Z,57.85
2022-11-16T21:25:25.766Z,73.43
2022-11-16T21:27:54.174Z,61.03
2022-11-16T21:30:24.057Z,61.25
2022-11-16T21:32:52.789Z,70.68
2022-11-16T21:35:23.683Z,101.80
2022-11-16T21:37:52.366Z,121.70
2022-11-16T21:40:21.180Z,155.07
2022-11-16T21:42:50.722Z,193.15
2022-11-16T21:45:19.448Z,117.53
2022-11-16T21:47:51.824Z,136.05
2022-11-16T21:50:35.536Z,148.13
2022-11-16T21:53:04.379Z,130.20
2022-11-16T21:55:33.366Z,85.68
2022-11-16T21:58:07.278Z,53.65
2022-11-16T22:00:36.071Z,38.45
2022-11-16T22:03:07.751Z,32.70
2022-11-16T22:05:56.352Z,30.15
2022-11-16T22:08:24.975Z,22.90
2022-11-16T22:10:54.901Z,23.10
2022-11-16T22:13:26.171Z,20.27
2022-11-16T22:15:56.410Z,23.05
2022-11-16T22:18:26.629Z,18.85
2022-11-16T22:20:55.840Z,16.60
2022-11-16T22:23:25.977Z,17.98
2022-11-16T22:25:56.776Z,19.60
2022-11-16T22:28:25.682Z,16.17
2022-11-16T22:31:01.455Z,15.77
2022-11-16T22:33:36.552Z,17.38
2022-11-16T22:36:05.896Z,17.27
2022-11-16T22:38:35.049Z,16.25
2022-11-16T22:41:03.893Z,17.77
2022-11-16T22:43:33.707Z,19.00
2022-11-16T22:46:04.472Z,19.92
2022-11-16T22:48:35.730Z,21.15
2022-11-16T22:51:08.928Z,17.63
2022-11-16T22:53:37.657Z,15.95
2022-11-16T22:56:08.660Z,20.15
2022-11-16T22:58:37.793Z,20.15
2022-11-16T23:01:09.536Z,19.25
2022-11-16T23:03:40.192Z,19.70
2022-11-16T23:06:09.171Z,18.98
2022-11-16T23:08:38.004Z,19.70
2022-11-16T23:11:26.184Z,19.17
2022-11-16T23:14:12.703Z,20.55
2022-11-16T23:16:42.001Z,16.20
2022-11-16T23:19:27.990Z,18.15
2022-11-16T23:22:13.981Z,18.92
2022-11-16T23:24:59.960Z,13.85
2022-11-16T23:27:30.805Z,19.38
2022-11-16T23:29:59.978Z,18.05
2022-11-16T23:32:28.595Z,16.90
2022-11-16T23:34:58.421Z,24.20
2022-11-16T23:37:27.045Z,17.33
2022-11-16T23:39:55.435Z,24.83
2022-11-16T23:42:41.376Z,14.05
2022-11-16T23:45:10.399Z,21.65
2022-11-16T23:47:38.752Z,16.45
2022-11-16T23:50:09.253Z,23.92
2022-11-16T23:52:37.590Z,18.67
2022-11-16T23:55:07.028Z,20.90
2022-11-16T23:57:35.838Z,20.75
